Time;durP1;ratioP1;P1;durP2;ratioP2;P2;SDS_P1;SDS_P2;PMS_P1;PMS_P2;Temp;Humidity;BMP_temperature;BMP_pressure;BME280_temperature;BME280_humidity;BME280_pressure;Samples;Min_cycle;Max_cycle;Signal;HPM_P1;HPM_P2
2023/06/25 00:00:55;;;;;;;2.85;2.38;;;20.50;99.90;;;;;;4953536;28;20071;-77
2023/06/25 00:03:23;;;;;;;3.80;2.47;;;20.60;99.90;;;;;;4937094;29;20048;-75
2023/06/25 00:09:32;;;;;;;3.63;2.13;;;20.50;99.90;;;;;;4798612;23;20066;-75
2023/06/25 00:11:57;;;;;;;6.95;2.58;;;20.50;99.90;;;;;;4977353;28;20031;-76
2023/06/25 00:14:23;;;;;;;4.55;2.78;;;20.50;99.90;;;;;;4995885;28;20045;-76
2023/06/25 00:16:57;;;;;;;3.88;2.33;;;20.40;99.90;;;;;;4995667;28;20026;-75
2023/06/25 00:19:25;;;;;;;4.38;1.90;;;20.40;99.90;;;;;;4996177;28;20026;-75
2023/06/25 00:21:51;;;;;;;3.53;2.38;;;20.40;99.90;;;;;;4995512;28;20018;-77
2023/06/25 00:24:18;;;;;;;5.32;2.65;;;20.40;99.90;;;;;;4995533;28;20040;-76
2023/06/25 00:26:45;;;;;;;3.30;2.28;;;20.40;99.90;;;;;;4995870;28;20018;-75
2023/06/25 00:29:13;;;;;;;3.90;2.28;;;20.40;99.90;;;;;;4994536;28;20485;-77
2023/06/25 00:31:39;;;;;;;5.85;2.53;;;20.40;99.90;;;;;;4978441;28;20366;-78
2023/06/25 00:34:05;;;;;;;4.15;2.28;;;20.40;99.90;;;;;;4995257;28;20088;-74
2023/06/25 00:36:36;;;;;;;4.97;2.42;;;20.40;99.90;;;;;;4977904;28;20030;-74
2023/06/25 00:39:04;;;;;;;4.57;2.23;;;20.40;99.90;;;;;;4965873;28;20077;-75
2023/06/25 00:41:29;;;;;;;3.03;1.98;;;20.40;99.90;;;;;;4995433;28;20267;-76
2023/06/25 00:43:57;;;;;;;3.55;2.25;;;20.40;99.90;;;;;;4978136;28;20034;-75
2023/06/25 00:46:25;;;;;;;3.05;2.00;;;20.40;99.90;;;;;;4977649;28;20050;-75
2023/06/25 00:48:52;;;;;;;5.75;2.25;;;20.40;99.90;;;;;;4995426;28;20049;-77
2023/06/25 00:51:21;;;;;;;7.47;2.28;;;20.40;99.90;;;;;;4977874;28;20031;-77
2023/06/25 00:53:47;;;;;;;3.08;2.08;;;20.50;99.90;;;;;;4995100;28;20553;-75
2023/06/25 00:56:13;;;;;;;3.22;2.25;;;20.40;99.90;;;;;;4977713;28;20109;-74
2023/06/25 00:58:40;;;;;;;2.78;2.05;;;20.50;99.90;;;;;;4977698;28;20067;-75
2023/06/25 01:01:17;;;;;;;2.45;2.17;;;20.50;99.90;;;;;;4995370;28;20037;-74
2023/06/25 01:03:54;;;;;;;4.25;1.83;;;20.50;99.90;;;;;;4977327;28;20050;-73
2023/06/25 01:06:29;;;;;;;3.83;2.60;;;20.50;99.90;;;;;;4995099;28;20058;-73
2023/06/25 01:08:59;;;;;;;5.63;2.42;;;20.40;99.90;;;;;;4994160;28;20050;-73
2023/06/25 01:11:26;;;;;;;3.92;2.55;;;20.40;99.90;;;;;;4993917;28;20050;-74
2023/06/25 01:13:52;;;;;;;4.38;2.42;;;20.40;99.90;;;;;;4976809;28;20121;-73
2023/06/25 01:16:17;;;;;;;4.00;2.70;;;20.40;99.90;;;;;;4994131;28;20105;-74
2023/06/25 01:18:43;;;;;;;3.45;2.70;;;20.40;99.90;;;;;;4976474;28;20474;-73
2023/06/25 01:21:10;;;;;;;5.25;2.63;;;20.30;99.90;;;;;;4994662;28;20082;-75
2023/06/25 01:23:37;;;;;;;2.47;2.10;;;20.20;99.90;;;;;;4994450;28;20489;-73
2023/06/25 01:26:03;;;;;;;3.38;2.97;;;20.20;99.90;;;;;;4976841;28;20042;-75
2023/06/25 01:28:29;;;;;;;3.20;2.65;;;20.20;99.90;;;;;;4976263;28;20035;-73
2023/06/25 01:30:55;;;;;;;3.63;2.08;;;20.10;99.90;;;;;;4977082;28;20030;-75
2023/06/25 01:33:25;;;;;;;4.03;2.78;;;20.20;99.90;;;;;;4976705;28;20485;-74
2023/06/25 01:35:54;;;;;;;4.10;2.33;;;20.10;99.90;;;;;;4994347;28;20022;-76
2023/06/25 01:38:20;;;;;;;2.92;2.13;;;20.20;99.90;;;;;;4976267;28;20042;-78
2023/06/25 01:40:46;;;;;;;3.95;2.40;;;20.10;99.90;;;;;;4994449;28;20489;-74
2023/06/25 01:43:11;;;;;;;3.78;2.40;;;20.10;99.90;;;;;;4994152;28;20034;-74
2023/06/25 01:45:37;;;;;;;5.45;2.58;;;20.10;99.90;;;;;;4994479;28;20029;-76
2023/06/25 01:48:03;;;;;;;2.92;2.20;;;20.10;99.90;;;;;;4976377;28;20572;-73
2023/06/25 01:50:29;;;;;;;4.00;2.70;;;20.10;99.90;;;;;;4976706;28;20029;-74
2023/06/25 01:52:55;;;;;;;2.90;2.20;;;20.00;99.90;;;;;;4975931;28;20394;-74
2023/06/25 01:55:21;;;;;;;6.82;2.80;;;20.10;99.90;;;;;;4993791;28;20057;-74
2023/06/25 01:57:47;;;;;;;10.73;3.00;;;20.10;99.90;;;;;;4994146;28;20018;-75
2023/06/25 02:00:14;;;;;;;4.45;2.58;;;20.00;99.90;;;;;;4976005;28;20057;-73
2023/06/25 02:02:43;;;;;;;3.30;2.70;;;20.00;99.90;;;;;;4994940;28;20029;-75
2023/06/25 02:05:09;;;;;;;5.93;2.60;;;20.00;99.90;;;;;;4976402;28;20476;-72
2023/06/25 02:07:35;;;;;;;6.05;2.58;;;20.00;99.90;;;;;;4993753;28;20114;-73
2023/06/25 02:10:01;;;;;;;4.18;2.92;;;20.00;99.90;;;;;;4975647;28;20066;-74
2023/06/25 02:12:28;;;;;;;3.75;2.30;;;20.00;99.90;;;;;;4993911;28;20081;-74
2023/06/25 02:14:54;;;;;;;3.55;2.67;;;20.00;99.90;;;;;;4976030;28;20026;-73
2023/06/25 02:17:20;;;;;;;3.72;2.83;;;20.00;99.90;;;;;;4959684;28;20030;-75
2023/06/25 02:19:45;;;;;;;3.97;3.08;;;20.00;99.90;;;;;;4975989;28;20486;-74
2023/06/25 02:22:11;;;;;;;3.45;2.85;;;20.00;99.90;;;;;;4993308;28;20110;-74
2023/06/25 02:24:37;;;;;;;3.67;2.63;;;20.00;99.90;;;;;;4993454;28;20038;-74
2023/06/25 02:27:03;;;;;;;5.50;2.65;;;20.00;99.90;;;;;;4993098;28;20022;-73
2023/06/25 02:29:29;;;;;;;4.20;3.13;;;20.00;99.90;;;;;;4975389;28;20496;-72
2023/06/25 02:31:55;;;;;;;5.30;2.78;;;20.00;99.90;;;;;;4975573;28;20049;-75
2023/06/25 02:34:21;;;;;;;5.25;2.80;;;20.00;99.90;;;;;;4993415;28;20102;-74
2023/06/25 02:36:47;;;;;;;5.95;2.78;;;19.90;99.90;;;;;;4993282;28;20032;-75
2023/06/25 02:39:13;;;;;;;4.13;3.00;;;19.90;99.90;;;;;;4993280;28;20469;-76
2023/06/25 02:41:39;;;;;;;6.80;3.22;;;19.90;99.90;;;;;;4992914;28;20486;-74
2023/06/25 02:44:05;;;;;;;4.53;2.85;;;19.90;99.90;;;;;;4985069;28;20053;-74
2023/06/25 02:46:31;;;;;;;6.47;3.25;;;19.80;99.90;;;;;;4975137;28;20101;-73
2023/06/25 02:48:56;;;;;;;6.07;2.80;;;19.80;99.90;;;;;;4993068;28;20026;-74
2023/06/25 02:51:23;;;;;;;6.18;3.35;;;19.80;99.90;;;;;;4975557;28;20022;-74
2023/06/25 02:53:49;;;;;;;4.85;3.03;;;19.90;99.90;;;;;;4975654;28;20470;-74
2023/06/25 02:56:15;;;;;;;4.53;3.13;;;19.80;99.90;;;;;;4993080;28;20452;-74
2023/06/25 02:58:41;;;;;;;5.70;3.33;;;19.80;99.90;;;;;;4992782;28;20067;-73
2023/06/25 03:01:07;;;;;;;6.28;3.35;;;19.80;99.90;;;;;;4975430;28;20363;-77
2023/06/25 03:03:33;;;;;;;6.32;3.67;;;19.80;99.90;;;;;;4959059;28;20477;-74
2023/06/25 03:06:00;;;;;;;4.93;3.53;;;19.80;99.90;;;;;;4975328;28;20085;-75
2023/06/25 03:08:26;;;;;;;7.10;4.13;;;19.70;99.90;;;;;;4974956;28;20038;-74
2023/06/25 03:10:52;;;;;;;4.45;2.97;;;19.70;99.90;;;;;;4975593;28;20113;-74
2023/06/25 03:13:18;;;;;;;6.40;3.10;;;19.70;99.90;;;;;;4975304;28;20471;-74
2023/06/25 03:15:44;;;;;;;5.10;3.60;;;19.70;99.90;;;;;;4974882;28;20046;-74
2023/06/25 03:18:10;;;;;;;7.82;3.42;;;19.70;99.90;;;;;;4959418;28;20130;-77
2023/06/25 03:20:36;;;;;;;6.13;3.50;;;19.70;99.90;;;;;;4974933;28;20034;-73
2023/06/25 03:23:02;;;;;;;5.22;3.78;;;19.60;99.90;;;;;;4975370;28;20547;-75
2023/06/25 03:25:28;;;;;;;6.43;3.30;;;19.60;99.90;;;;;;4975199;28;20031;-76
2023/06/25 03:28:08;;;;;;;8.45;4.50;;;19.60;99.90;;;;;;4975046;28;20051;-73
2023/06/25 03:30:34;;;;;;;7.55;3.25;;;19.70;99.90;;;;;;4992548;28;20034;-77
2023/06/25 03:33:01;;;;;;;7.85;4.13;;;19.60;99.90;;;;;;4976753;28;20030;-76
2023/06/25 03:35:27;;;;;;;6.68;4.15;;;19.60;99.90;;;;;;4999151;28;20081;-74
2023/06/25 03:37:53;;;;;;;6.45;3.53;;;19.60;99.90;;;;;;4980796;28;20035;-78
2023/06/25 03:40:18;;;;;;;4.88;3.47;;;19.60;99.90;;;;;;4999253;28;20540;-78
2023/06/25 03:42:44;;;;;;;9.52;4.25;;;19.60;99.90;;;;;;4981056;28;20027;-75
2023/06/25 03:45:13;;;;;;;6.13;3.85;;;19.50;99.90;;;;;;4981696;28;20030;-75
2023/06/25 03:47:40;;;;;;;6.93;4.07;;;19.60;99.90;;;;;;4981236;28;20022;-77
2023/06/25 03:50:06;;;;;;;5.90;3.92;;;19.50;99.90;;;;;;4981424;28;20038;-75
2023/06/25 03:52:34;;;;;;;5.97;4.00;;;19.60;99.90;;;;;;4981289;28;20050;-75
2023/06/25 03:55:02;;;;;;;6.05;3.65;;;19.50;99.90;;;;;;4981243;28;20121;-74
2023/06/25 03:57:29;;;;;;;4.53;3.22;;;19.50;99.90;;;;;;4981501;28;20022;-75
2023/06/25 03:59:55;;;;;;;6.95;3.78;;;19.50;99.90;;;;;;4998868;28;20027;-75
2023/06/25 04:02:21;;;;;;;6.47;3.88;;;19.50;99.90;;;;;;4998683;28;20034;-73
2023/06/25 04:04:47;;;;;;;8.00;3.88;;;19.50;99.90;;;;;;4998809;28;20026;-78
2023/06/25 04:07:12;;;;;;;6.53;3.92;;;19.50;99.90;;;;;;4980607;28;20473;-78
2023/06/25 04:09:39;;;;;;;5.90;3.72;;;19.50;99.90;;;;;;4998431;28;20046;-75
2023/06/25 04:12:05;;;;;;;7.63;4.40;;;19.50;99.90;;;;;;4981146;28;20547;-75
2023/06/25 04:14:31;;;;;;;8.27;3.80;;;19.60;99.90;;;;;;4981325;28;20056;-76
2023/06/25 04:16:57;;;;;;;11.02;3.97;;;19.60;99.90;;;;;;4980716;28;20549;-74
2023/06/25 04:19:23;;;;;;;7.63;4.40;;;19.60;99.90;;;;;;4980844;28;20405;-76
2023/06/25 04:21:51;;;;;;;8.50;4.00;;;19.70;99.90;;;;;;4980718;28;20030;-75
2023/06/25 04:24:16;;;;;;;8.85;4.45;;;19.70;99.90;;;;;;4981173;28;20027;-75
2023/06/25 04:26:42;;;;;;;6.30;4.07;;;19.70;99.90;;;;;;4998013;28;20541;-74
2023/06/25 04:29:10;;;;;;;8.32;4.40;;;19.70;99.90;;;;;;4981142;28;20039;-74
2023/06/25 04:31:37;;;;;;;6.90;3.95;;;19.70;99.90;;;;;;4980709;28;20022;-75
2023/06/25 04:34:03;;;;;;;8.15;3.83;;;19.70;99.90;;;;;;4981295;28;20040;-75
2023/06/25 04:36:30;;;;;;;8.30;4.28;;;19.80;99.90;;;;;;4980769;28;20050;-74
2023/06/25 04:38:57;;;;;;;6.13;3.92;;;19.80;99.90;;;;;;4980884;28;20032;-77
2023/06/25 04:41:27;;;;;;;6.68;4.32;;;19.80;99.90;;;;;;4980967;28;20019;-73
2023/06/25 04:43:54;;;;;;;7.00;4.55;;;19.80;99.90;;;;;;4980740;28;20026;-75
2023/06/25 04:46:20;;;;;;;9.57;4.68;;;19.80;99.90;;;;;;4976905;28;20030;-75
2023/06/25 04:48:46;;;;;;;8.00;3.78;;;19.90;99.90;;;;;;4977956;28;20474;-75
2023/06/25 04:51:13;;;;;;;6.38;4.10;;;19.90;99.90;;;;;;4977520;28;20027;-75
2023/06/25 04:53:39;;;;;;;8.43;4.05;;;19.90;99.90;;;;;;4994932;28;20569;-75
2023/06/25 04:56:05;;;;;;;8.75;3.90;;;20.00;99.90;;;;;;4995115;28;20033;-74
2023/06/25 04:58:31;;;;;;;8.05;4.35;;;19.90;99.90;;;;;;4994893;28;20042;-75
2023/06/25 05:00:56;;;;;;;8.32;4.65;;;20.10;99.90;;;;;;4994990;28;20072;-75
2023/06/25 05:03:22;;;;;;;5.82;3.47;;;20.10;99.90;;;;;;4995019;28;20117;-75
2023/06/25 05:05:48;;;;;;;6.70;3.78;;;20.00;99.90;;;;;;4995189;28;20025;-75
2023/06/25 05:08:14;;;;;;;8.68;4.13;;;20.10;99.90;;;;;;4994567;28;20050;-76
2023/06/25 05:10:42;;;;;;;5.38;3.75;;;20.20;99.90;;;;;;4994508;28;20026;-75
2023/06/25 05:13:08;;;;;;;6.88;4.25;;;20.20;99.90;;;;;;4995256;28;20026;-74
2023/06/25 05:15:33;;;;;;;6.90;4.47;;;20.20;99.90;;;;;;4994625;28;20022;-75
2023/06/25 05:17:59;;;;;;;9.80;3.95;;;20.20;99.90;;;;;;4994963;28;20497;-73
2023/06/25 05:20:25;;;;;;;7.30;4.28;;;20.30;99.90;;;;;;4994350;28;20048;-77
2023/06/25 05:22:51;;;;;;;7.90;4.78;;;20.30;99.90;;;;;;4995159;28;20084;-74
2023/06/25 05:25:17;;;;;;;8.27;4.40;;;20.30;99.90;;;;;;4994606;28;20030;-75
2023/06/25 05:27:42;;;;;;;6.22;4.15;;;20.40;99.90;;;;;;4994896;28;20061;-74
2023/06/25 05:30:08;;;;;;;5.72;3.60;;;20.40;99.90;;;;;;4994333;28;20053;-76
2023/06/25 05:32:34;;;;;;;6.43;4.03;;;20.50;99.90;;;;;;4994662;28;20033;-74
2023/06/25 05:35:00;;;;;;;7.93;3.88;;;20.50;99.90;;;;;;4994530;28;20038;-75
2023/06/25 05:37:26;;;;;;;5.80;3.65;;;20.50;99.90;;;;;;4994335;28;20421;-74
2023/06/25 05:39:51;;;;;;;7.10;4.00;;;20.50;99.90;;;;;;4993966;28;20080;-75
2023/06/25 05:42:17;;;;;;;11.43;4.55;;;20.40;99.90;;;;;;4976023;28;20039;-76
2023/06/25 05:44:43;;;;;;;6.40;4.45;;;20.60;99.90;;;;;;4980922;28;20034;-77
2023/06/25 05:47:09;;;;;;;8.27;4.75;;;20.60;99.90;;;;;;4993876;28;20126;-76
2023/06/25 05:49:35;;;;;;;7.82;4.32;;;20.60;99.90;;;;;;4975640;28;20035;-74
2023/06/25 05:52:00;;;;;;;9.65;4.75;;;20.50;99.90;;;;;;4974388;28;20463;-74
2023/06/25 05:54:26;;;;;;;8.25;5.07;;;20.50;99.90;;;;;;4974661;28;20109;-74
2023/06/25 05:56:52;;;;;;;7.35;4.15;;;20.40;99.90;;;;;;4986695;28;20026;-74
2023/06/25 05:59:18;;;;;;;5.80;3.70;;;20.70;99.90;;;;;;4993808;28;20069;-76
2023/06/25 06:01:43;;;;;;;6.47;4.00;;;20.70;99.90;;;;;;4991187;28;20488;-74
2023/06/25 06:04:09;;;;;;;7.03;4.18;;;20.90;99.90;;;;;;4994031;28;20065;-75
2023/06/25 06:06:35;;;;;;;11.35;4.40;;;21.00;99.90;;;;;;4980951;28;20067;-74
2023/06/25 06:09:01;;;;;;;5.82;4.13;;;21.30;99.90;;;;;;4974042;28;20063;-75
2023/06/25 06:11:27;;;;;;;10.23;4.82;;;21.30;99.90;;;;;;4974412;28;20126;-74
2023/06/25 06:13:53;;;;;;;7.28;4.07;;;21.50;99.90;;;;;;4977278;28;20471;-77
2023/06/25 06:16:19;;;;;;;6.90;3.90;;;21.60;99.90;;;;;;4979835;28;20033;-74
2023/06/25 06:18:45;;;;;;;6.82;4.03;;;21.70;99.90;;;;;;4979327;28;20097;-75
2023/06/25 06:21:10;;;;;;;7.85;4.15;;;21.70;99.90;;;;;;4982041;28;20081;-77
2023/06/25 06:23:36;;;;;;;7.70;3.83;;;21.70;99.90;;;;;;4986997;28;20019;-78
2023/06/25 06:26:02;;;;;;;5.28;3.35;;;21.70;99.90;;;;;;4986539;28;20022;-77
2023/06/25 06:28:28;;;;;;;4.85;3.15;;;21.70;99.90;;;;;;4975021;28;20042;-76
2023/06/25 06:30:53;;;;;;;8.07;3.97;;;21.70;99.90;;;;;;4972816;28;20130;-77
2023/06/25 06:33:19;;;;;;;7.38;3.78;;;21.80;99.90;;;;;;4974813;28;20027;-75
2023/06/25 06:35:45;;;;;;;6.32;3.92;;;21.90;99.90;;;;;;4980528;28;20023;-78
2023/06/25 06:38:11;;;;;;;6.25;3.75;;;21.90;99.90;;;;;;4974754;28;20042;-76
2023/06/25 06:40:36;;;;;;;8.13;4.38;;;21.90;99.90;;;;;;4991068;28;20101;-76
2023/06/25 06:43:02;;;;;;;5.72;3.45;;;22.00;99.90;;;;;;4990138;28;20073;-77
2023/06/25 06:45:28;;;;;;;6.22;3.28;;;22.10;99.90;;;;;;4973879;28;20023;-76
2023/06/25 06:47:54;;;;;;;7.65;4.15;;;22.10;99.90;;;;;;4986742;28;20042;-80
2023/06/25 06:50:20;;;;;;;12.02;3.88;;;22.20;99.90;;;;;;4982850;28;20061;-76
2023/06/25 06:52:46;;;;;;;6.68;4.22;;;22.40;99.90;;;;;;4980383;28;20030;-73
2023/06/25 06:55:12;;;;;;;11.65;4.25;;;22.50;99.90;;;;;;4983413;28;20022;-75
2023/06/25 06:57:38;;;;;;;5.70;3.78;;;22.60;99.90;;;;;;4973784;28;20039;-74
2023/06/25 07:00:04;;;;;;;6.65;3.47;;;22.50;99.90;;;;;;4977735;28;20030;-73
2023/06/25 07:02:30;;;;;;;5.07;3.10;;;22.50;99.90;;;;;;4981688;28;20030;-73
2023/06/25 07:04:56;;;;;;;7.40;4.30;;;22.50;99.90;;;;;;4973474;28;20450;-75
2023/06/25 07:07:22;;;;;;;6.15;3.60;;;22.50;99.90;;;;;;4955121;28;20443;-74
2023/06/25 07:09:53;;;;;;;10.50;4.03;;;22.80;99.90;;;;;;4972779;28;20068;-74
2023/06/25 07:12:20;;;;;;;6.70;3.37;;;22.80;99.90;;;;;;4973354;28;20026;-74
2023/06/25 07:14:45;;;;;;;13.80;4.43;;;23.00;99.90;;;;;;4986313;28;20031;-73
2023/06/25 07:17:11;;;;;;;7.45;3.70;;;23.20;99.90;;;;;;4978663;28;20041;-74
2023/06/25 07:19:37;;;;;;;5.95;3.72;;;23.40;99.90;;;;;;4980207;28;20085;-74
2023/06/25 07:22:03;;;;;;;6.50;3.83;;;23.60;99.90;;;;;;4973264;28;20035;-75
2023/06/25 07:24:31;;;;;;;7.25;4.10;;;23.70;99.90;;;;;;4973190;28;20037;-75
2023/06/25 07:26:56;;;;;;;9.38;3.40;;;24.10;99.90;;;;;;4973403;28;20072;-76
2023/06/25 07:29:22;;;;;;;6.00;3.97;;;24.50;99.90;;;;;;4973028;28;20038;-74
2023/06/25 07:31:48;;;;;;;7.82;3.35;;;24.30;99.90;;;;;;4956163;28;20054;-74
2023/06/25 07:34:14;;;;;;;6.82;3.85;;;24.20;99.90;;;;;;4990133;28;20026;-75
2023/06/25 07:36:40;;;;;;;8.48;4.25;;;23.90;99.90;;;;;;4992503;28;20045;-74
2023/06/25 07:39:06;;;;;;;7.55;3.58;;;24.10;99.90;;;;;;4991995;28;20482;-74
2023/06/25 07:41:31;;;;;;;7.35;3.92;;;24.10;99.90;;;;;;4992522;28;20042;-74
2023/06/25 07:43:57;;;;;;;5.50;3.35;;;24.20;99.90;;;;;;4992450;28;20041;-75
2023/06/25 07:46:24;;;;;;;8.68;3.75;;;23.80;99.90;;;;;;4974959;28;20037;-74
2023/06/25 07:48:50;;;;;;;8.20;4.35;;;24.00;99.90;;;;;;4992256;28;20030;-74
2023/06/25 07:51:16;;;;;;;6.80;3.63;;;24.00;99.90;;;;;;4992054;28;20771;-75
2023/06/25 07:53:42;;;;;;;6.35;3.00;;;24.00;99.90;;;;;;4992727;28;20121;-75
2023/06/25 07:56:08;;;;;;;7.63;3.80;;;24.10;99.90;;;;;;4992002;28;20113;-74
2023/06/25 07:58:34;;;;;;;7.57;3.38;;;24.20;99.90;;;;;;4992451;28;20030;-74
2023/06/25 08:01:00;;;;;;;6.47;3.53;;;24.30;99.90;;;;;;4992024;28;20029;-75
2023/06/25 08:03:25;;;;;;;6.70;3.40;;;24.30;99.90;;;;;;4992466;28;20040;-75
2023/06/25 08:05:51;;;;;;;4.00;2.97;;;24.30;99.90;;;;;;4973918;28;20129;-74
2023/06/25 08:08:17;;;;;;;6.38;3.78;;;24.10;99.90;;;;;;4991945;28;20046;-75
2023/06/25 08:10:43;;;;;;;5.10;3.45;;;24.10;99.90;;;;;;4988822;28;20026;-75
2023/06/25 08:13:09;;;;;;;9.13;3.63;;;24.00;99.90;;;;;;4986178;28;20485;-74
2023/06/25 08:15:35;;;;;;;7.22;4.05;;;23.90;99.90;;;;;;4974562;28;20493;-74
2023/06/25 08:18:00;;;;;;;7.63;3.88;;;24.00;99.90;;;;;;4992360;28;20057;-77
2023/06/25 08:20:26;;;;;;;6.15;3.70;;;24.30;99.90;;;;;;4994619;28;20033;-78
2023/06/25 08:22:52;;;;;;;6.75;3.90;;;24.50;99.90;;;;;;4995562;28;20022;-77
2023/06/25 08:25:23;;;;;;;4.70;3.38;;;24.80;99.90;;;;;;4987788;28;20026;-77
2023/06/25 08:27:50;;;;;;;7.47;4.03;;;24.70;99.90;;;;;;4982860;28;20508;-76
2023/06/25 08:30:16;;;;;;;8.77;3.63;;;24.60;99.90;;;;;;4989244;28;20034;-76
2023/06/25 08:32:42;;;;;;;6.70;3.40;;;24.50;99.90;;;;;;4984570;28;20112;-76
2023/06/25 08:35:08;;;;;;;7.07;3.70;;;24.60;99.90;;;;;;4994878;28;20065;-75
2023/06/25 08:37:34;;;;;;;5.10;3.50;;;24.80;99.90;;;;;;4995538;28;20030;-76
2023/06/25 08:40:00;;;;;;;6.47;3.55;;;24.80;99.90;;;;;;4995598;28;20378;-74
2023/06/25 08:42:27;;;;;;;6.43;3.35;;;24.90;99.90;;;;;;4995198;28;20034;-76
2023/06/25 08:44:53;;;;;;;5.97;3.70;;;24.80;99.90;;;;;;4987032;28;20015;-76
2023/06/25 08:47:19;;;;;;;5.85;3.88;;;24.70;99.90;;;;;;4995544;28;20394;-76
2023/06/25 08:49:49;;;;;;;6.05;3.97;;;24.80;99.90;;;;;;4976785;28;20054;-78
2023/06/25 08:52:18;;;;;;;5.38;3.40;;;24.70;99.90;;;;;;4995260;28;20476;-76
2023/06/25 08:54:47;;;;;;;6.78;3.53;;;24.80;99.90;;;;;;4995140;28;20072;-76
2023/06/25 08:57:13;;;;;;;5.85;3.78;;;24.90;99.90;;;;;;4995059;28;20377;-74
2023/06/25 08:59:39;;;;;;;6.68;3.80;;;24.90;99.90;;;;;;4995034;28;20109;-77
2023/06/25 09:02:05;;;;;;;8.77;4.18;;;24.80;99.90;;;;;;4995361;28;20030;-75
2023/06/25 09:04:30;;;;;;;5.65;3.78;;;25.00;99.90;;;;;;4994850;28;20462;-75
2023/06/25 09:07:05;;;;;;;5.28;3.50;;;25.00;99.90;;;;;;4994895;28;20034;-79
2023/06/25 09:09:31;;;;;;;8.25;3.63;;;24.80;99.90;;;;;;4982955;28;20506;-77
2023/06/25 09:11:57;;;;;;;6.65;3.58;;;24.60;99.90;;;;;;4977014;28;20084;-77
2023/06/25 09:14:22;;;;;;;5.43;3.22;;;24.50;99.90;;;;;;4994862;28;20041;-74
2023/06/25 09:16:49;;;;;;;6.22;3.78;;;24.40;99.90;;;;;;4977277;28;20073;-78
2023/06/25 09:19:17;;;;;;;4.90;3.47;;;24.50;99.90;;;;;;4994773;28;20110;-73
2023/06/25 09:21:43;;;;;;;6.18;3.50;;;24.50;99.90;;;;;;4977001;28;20101;-75
2023/06/25 09:24:17;;;;;;;6.20;3.58;;;24.50;99.90;;;;;;4994965;28;20023;-75
2023/06/25 09:26:51;;;;;;;6.85;3.40;;;24.50;99.90;;;;;;4994667;28;20029;-76
2023/06/25 09:29:19;;;;;;;4.88;3.40;;;24.50;99.90;;;;;;4994435;28;20038;-75
2023/06/25 09:31:46;;;;;;;3.58;2.70;;;24.40;99.90;;;;;;4976369;28;20466;-78
2023/06/25 09:34:14;;;;;;;7.85;3.60;;;24.30;99.90;;;;;;4994046;28;20121;-75
2023/06/25 09:36:40;;;;;;;4.82;3.03;;;24.40;99.90;;;;;;4994479;28;20015;-76
2023/06/25 09:39:08;;;;;;;4.72;3.05;;;24.20;99.90;;;;;;4994058;28;20504;-75
2023/06/25 09:41:35;;;;;;;5.47;3.45;;;24.30;99.90;;;;;;4994108;28;20015;-79
2023/06/25 09:44:05;;;;;;;14.48;3.40;;;24.30;99.90;;;;;;4994382;28;20050;-76
2023/06/25 09:46:36;;;;;;;4.55;3.30;;;24.10;99.90;;;;;;4994064;28;20053;-75
2023/06/25 09:49:03;;;;;;;7.43;3.53;;;24.40;99.90;;;;;;4993920;28;20366;-76
2023/06/25 09:51:40;;;;;;;6.70;3.67;;;24.20;99.90;;;;;;4993984;28;20470;-80
2023/06/25 09:54:10;;;;;;;7.50;3.25;;;24.10;99.90;;;;;;4994190;28;20027;-78
2023/06/25 09:56:38;;;;;;;7.97;3.33;;;24.30;99.90;;;;;;4994246;28;20100;-78
2023/06/25 09:59:05;;;;;;;8.00;3.30;;;24.50;99.90;;;;;;4993885;28;20037;-75
2023/06/25 10:01:31;;;;;;;5.63;3.00;;;24.60;99.90;;;;;;4994141;28;20018;-77
2023/06/25 10:03:57;;;;;;;5.45;3.15;;;24.60;99.90;;;;;;4993851;28;20467;-75
2023/06/25 10:06:23;;;;;;;7.32;3.40;;;24.90;99.90;;;;;;4993967;28;20053;-76
2023/06/25 10:08:50;;;;;;;4.10;2.92;;;25.00;99.90;;;;;;4993319;28;20051;-79
2023/06/25 10:11:16;;;;;;;5.90;3.38;;;25.20;99.90;;;;;;4975988;28;20043;-75
2023/06/25 10:13:46;;;;;;;3.97;2.85;;;25.30;99.90;;;;;;4975279;28;20109;-76
2023/06/25 10:16:21;;;;;;;4.88;2.80;;;25.40;99.90;;;;;;4992922;28;20042;-75
2023/06/25 10:18:47;;;;;;;4.25;2.90;;;25.40;99.80;;;;;;4993723;28;20030;-78
2023/06/25 10:21:22;;;;;;;4.32;2.78;;;25.50;99.40;;;;;;4993463;28;20302;-75
2023/06/25 10:24:03;;;;;;;3.95;2.75;;;25.60;97.70;;;;;;4993721;28;20030;-77
2023/06/25 10:26:33;;;;;;;4.68;3.15;;;25.50;98.30;;;;;;4993297;28;20038;-76
2023/06/25 10:29:01;;;;;;;2.92;2.55;;;25.50;95.80;;;;;;4993399;28;20038;-77
2023/06/25 10:31:37;;;;;;;4.65;3.00;;;25.60;97.80;;;;;;4993486;28;20045;-74
2023/06/25 10:34:04;;;;;;;3.38;2.30;;;25.60;96.80;;;;;;4986716;28;20461;-76
2023/06/25 10:36:30;;;;;;;5.65;3.13;;;25.80;97.60;;;;;;4991038;28;20101;-73
2023/06/25 10:38:58;;;;;;;5.75;2.45;;;25.70;96.20;;;;;;4993115;28;20057;-77
2023/06/25 10:41:31;;;;;;;3.05;2.13;;;25.90;96.30;;;;;;4992802;28;20386;-74
2023/06/25 10:43:59;;;;;;;4.00;2.63;;;25.80;94.50;;;;;;4991435;28;20045;-73
2023/06/25 10:46:31;;;;;;;4.43;2.67;;;25.70;95.80;;;;;;4979200;28;20027;-74
2023/06/25 10:49:01;;;;;;;2.85;2.20;;;25.70;95.30;;;;;;4965471;28;20486;-75
2023/06/25 10:51:28;;;;;;;4.80;2.83;;;25.90;95.30;;;;;;4992594;28;20026;-74
2023/06/25 10:53:55;;;;;;;4.22;2.58;;;25.80;94.80;;;;;;4983080;28;20021;-75
2023/06/25 10:56:22;;;;;;;6.85;3.17;;;26.10;96.20;;;;;;4973265;28;20026;-74
2023/06/25 10:58:58;;;;;;;5.47;3.28;;;26.40;96.00;;;;;;4959773;28;20417;-76
2023/06/25 11:01:25;;;;;;;4.95;2.55;;;26.50;95.90;;;;;;4977413;28;20031;-78
2023/06/25 11:03:51;;;;;;;4.38;2.67;;;26.40;95.70;;;;;;4974682;28;20037;-75
2023/06/25 11:06:18;;;;;;;4.30;2.60;;;26.50;95.30;;;;;;4973568;28;20037;-76
2023/06/25 11:08:44;;;;;;;7.03;3.30;;;26.50;94.00;;;;;;4972801;28;20384;-75
2023/06/25 11:11:11;;;;;;;7.38;2.70;;;26.50;95.50;;;;;;4975060;28;20023;-79
2023/06/25 11:13:37;;;;;;;5.30;3.15;;;26.60;94.10;;;;;;4971546;28;20574;-76
2023/06/25 11:16:05;;;;;;;10.27;3.15;;;26.60;96.10;;;;;;4985918;28;20102;-78
2023/06/25 11:18:30;;;;;;;4.53;3.20;;;26.40;95.10;;;;;;4980496;28;20039;-80
2023/06/25 11:20:58;;;;;;;5.18;3.33;;;26.30;95.10;;;;;;4978139;28;20077;-77
2023/06/25 11:23:24;;;;;;;6.78;3.22;;;26.20;95.70;;;;;;4992308;28;20041;-79
2023/06/25 11:25:50;;;;;;;3.85;2.58;;;26.30;94.50;;;;;;4992676;28;20019;-76
2023/06/25 11:28:16;;;;;;;7.85;3.53;;;26.40;94.60;;;;;;4980449;28;20049;-78
2023/06/25 11:30:44;;;;;;;5.53;3.17;;;26.40;94.60;;;;;;4991810;28;20112;-76
2023/06/25 11:33:11;;;;;;;4.90;2.72;;;26.40;94.90;;;;;;4980808;28;20090;-74
2023/06/25 11:35:38;;;;;;;5.20;2.95;;;26.50;95.70;;;;;;4976929;28;20097;-79
2023/06/25 11:38:04;;;;;;;3.85;2.78;;;26.60;94.90;;;;;;4990162;28;20390;-79
2023/06/25 11:40:33;;;;;;;5.88;2.72;;;26.20;95.10;;;;;;4939896;28;20019;-77
2023/06/25 11:42:59;;;;;;;3.20;2.70;;;26.20;93.20;;;;;;4983203;28;20088;-76
2023/06/25 11:45:25;;;;;;;4.40;2.47;;;26.30;95.40;;;;;;4992527;28;20031;-74
2023/06/25 11:47:55;;;;;;;5.63;2.72;;;26.20;95.60;;;;;;4991560;28;20104;-78
2023/06/25 11:50:23;;;;;;;4.80;2.58;;;26.40;95.30;;;;;;4979123;28;20078;-75
2023/06/25 11:52:49;;;;;;;3.28;2.25;;;26.40;93.70;;;;;;4957497;28;20449;-78
2023/06/25 11:55:16;;;;;;;4.05;2.67;;;26.40;94.30;;;;;;4987640;28;20026;-77
2023/06/25 11:57:42;;;;;;;4.70;2.88;;;26.30;94.40;;;;;;4995412;28;20027;-78
2023/06/25 12:00:08;;;;;;;4.78;2.85;;;26.20;94.10;;;;;;4973279;28;20049;-77
2023/06/25 12:02:34;;;;;;;11.75;3.25;;;26.40;95.10;;;;;;4995790;28;20358;-73
2023/06/25 12:05:00;;;;;;;8.35;3.65;;;26.40;95.90;;;;;;4977710;28;20042;-74
2023/06/25 12:07:26;;;;;;;6.22;3.13;;;26.50;96.00;;;;;;4975003;28;20086;-78
2023/06/25 12:09:52;;;;;;;3.35;2.25;;;26.50;96.10;;;;;;4975555;28;20051;-78
2023/06/25 12:12:18;;;;;;;5.13;3.08;;;26.50;94.90;;;;;;4975450;28;20067;-78
2023/06/25 12:14:44;;;;;;;5.38;2.75;;;26.50;95.80;;;;;;4974209;28;20527;-75
2023/06/25 12:17:11;;;;;;;4.88;2.80;;;26.60;95.30;;;;;;4978003;28;20363;-75
2023/06/25 12:19:37;;;;;;;5.00;2.50;;;26.60;94.50;;;;;;4974846;28;20019;-77
2023/06/25 12:22:05;;;;;;;4.38;2.30;;;26.70;93.80;;;;;;4978444;28;20042;-79
2023/06/25 12:24:31;;;;;;;3.38;2.80;;;26.80;94.20;;;;;;4992502;28;20113;-78
2023/06/25 12:26:56;;;;;;;5.13;2.90;;;26.70;93.90;;;;;;4995475;28;20053;-76
2023/06/25 12:29:23;;;;;;;6.00;2.92;;;26.80;96.70;;;;;;4995529;28;20037;-75
2023/06/25 12:31:49;;;;;;;7.15;2.72;;;26.50;96.00;;;;;;4995548;28;20022;-74
2023/06/25 12:34:15;;;;;;;6.10;2.50;;;26.50;95.70;;;;;;4995536;28;20022;-79
2023/06/25 12:36:41;;;;;;;5.97;2.63;;;26.70;94.90;;;;;;4987934;28;20534;-76
2023/06/25 12:39:07;;;;;;;8.07;3.35;;;26.70;96.00;;;;;;4989769;28;20101;-74
2023/06/25 12:41:33;;;;;;;3.58;2.55;;;26.70;95.20;;;;;;4995491;28;20027;-75
2023/06/25 12:43:58;;;;;;;4.50;2.33;;;26.50;94.70;;;;;;4994869;28;20490;-76
2023/06/25 12:46:24;;;;;;;5.57;2.92;;;26.70;93.30;;;;;;4995279;28;20034;-74